Capitol Logistics 7416

Operating for MZN



KRFD
Chicago/Rockford International Airport
Rockford, Illinois
KSEA
Seattle-Tacoma International Airport
Seattle, Washington

Activity Log

Date Flight Route Aircraft Duration
03/09/2020 CPX306 KRFD/25 JIBOR J90 MCW J16 BIL J136 MLP GLASR1 KSEA/I16C B763 4h 09m
11/26/2019 CPX416 RFD COTON J30 ODI KP90G KP09A DIK KU15Q GEG GLASR1 B738 3h 58m
01/15/2019 CPX416 RFD DBQ MCW J16 BIL J136 HLN J34 ODESS EPH8 B752 3h 35m
11/25/2018 CPX326 RFD COTON J30 ODI KP90G KP09A DIK KU15Q GEG GLASR1 B752 3h 56m

Route Details

Aircraft Information
Primary: Boeing 767-300BDSF
Backup: Airbus A300-600F
Route Data
Distance: 1439nm
Duration: 4h 40m
Recm'd Route: DBQ J94 KATES J94 ONL J151 BIL J136 MLP GLASR1
Origin Wx: KRFD 020454Z 00000KT 10SM CLR 17/12 A3017 RMK AO2 SLP212 T01720122 $
Dest. Wx: KSEA 020453Z 27004KT 10SM FEW250 21/14 A3010 RMK AO2 SLP197 T02060144
Notes: